createdAt,value
2023-04-01T00:00:09.365Z,797.7
2023-04-01T00:01:53.100Z,798.1
2023-04-01T00:05:20.457Z,798.6
2023-04-01T00:07:04.037Z,797.2
2023-04-01T00:08:47.912Z,799.4
2023-04-01T00:10:31.438Z,803.5
2023-04-01T00:12:15.310Z,805.2
2023-04-01T00:13:59.006Z,806.4
2023-04-01T00:15:42.662Z,805.8
2023-04-01T00:17:26.266Z,808.5
2023-04-01T00:19:09.982Z,812
2023-04-01T00:20:53.864Z,811.8
2023-04-01T00:22:37.379Z,811.5
2023-04-01T00:24:21.066Z,809.7
2023-04-01T00:26:04.914Z,810.2
2023-04-01T00:27:48.668Z,810.9
2023-04-01T00:29:32.316Z,812.8
2023-04-01T00:31:16.073Z,817.5
2023-04-01T00:32:59.581Z,821.3
2023-04-01T00:34:43.278Z,824.4
2023-04-01T00:36:27.139Z,824.4
2023-04-01T00:38:10.810Z,823.7
2023-04-01T00:39:54.455Z,825.5
2023-04-01T00:41:38.196Z,829.8
2023-04-01T00:43:21.938Z,830.8
2023-04-01T00:45:05.635Z,829.1
2023-04-01T00:46:49.383Z,828.2
2023-04-01T00:48:33.031Z,828.8
2023-04-01T00:50:16.614Z,829
2023-04-01T00:52:00.438Z,831
2023-04-01T00:53:44.006Z,826.8
2023-04-01T00:55:27.829Z,826
2023-04-01T00:57:11.581Z,831.5
2023-04-01T00:58:55.219Z,838
2023-04-01T01:00:38.825Z,839.2
2023-04-01T01:04:06.240Z,835.2
2023-04-01T01:05:50.171Z,838
2023-04-01T01:07:33.736Z,836.8
2023-04-01T01:09:17.519Z,835.8
2023-04-01T01:11:01.275Z,835.2
2023-04-01T01:12:44.743Z,836.9
2023-04-01T01:14:28.669Z,837.6
2023-04-01T01:16:12.179Z,839.4
2023-04-01T01:17:55.853Z,844.8
2023-04-01T01:19:39.740Z,846.2
2023-04-01T01:21:23.473Z,848.9
2023-04-01T01:23:06.966Z,850.8
2023-04-01T01:24:50.844Z,848.2
2023-04-01T01:26:34.555Z,849.9
2023-04-01T01:28:18.213Z,852
2023-04-01T01:30:01.885Z,858.4
2023-04-01T01:31:45.535Z,858.6
2023-04-01T01:33:29.315Z,859.2
2023-04-01T01:35:13.006Z,861.8
2023-04-01T01:36:56.572Z,858.8
2023-04-01T01:38:40.451Z,859
2023-04-01T01:40:24.138Z,859.4
2023-04-01T01:42:07.761Z,855.9
2023-04-01T01:43:51.560Z,858.9
2023-04-01T01:45:35.187Z,862.8
2023-04-01T01:47:18.976Z,863.5
2023-04-01T01:49:02.704Z,864.4
2023-04-01T01:50:46.211Z,864.7
2023-04-01T01:52:29.907Z,865.1
2023-04-01T01:54:13.789Z,867.4
2023-04-01T01:55:57.352Z,869
2023-04-01T01:57:41.194Z,867.2
2023-04-01T01:59:24.718Z,866.6
2023-04-01T02:02:52.129Z,873.9
2023-04-01T02:04:35.980Z,875.2
2023-04-01T02:06:19.616Z,874.3
2023-04-01T02:08:03.401Z,874.4
2023-04-01T02:09:46.923Z,871.9
2023-04-01T02:11:30.725Z,877.3
2023-04-01T02:13:14.499Z,874.8
2023-04-01T02:14:58.035Z,876
2023-04-01T02:16:41.733Z,876.1
2023-04-01T02:18:25.614Z,874
2023-04-01T02:20:09.148Z,874.3
2023-04-01T02:21:53.050Z,873.5
2023-04-01T02:23:36.708Z,872.5
2023-04-01T02:25:20.377Z,875.4
2023-04-01T02:27:04.204Z,880.2
2023-04-01T02:28:47.769Z,883
2023-04-01T02:30:31.361Z,882.8
2023-04-01T02:32:15.233Z,882.6
2023-04-01T02:33:58.936Z,884.3
2023-04-01T02:35:42.700Z,881.8
2023-04-01T02:37:26.342Z,881.1
2023-04-01T02:39:10.039Z,878.1
2023-04-01T02:40:53.771Z,875.6
2023-04-01T02:42:37.389Z,876.9
2023-04-01T02:44:21.157Z,878.3
2023-04-01T02:46:04.754Z,878.2
2023-04-01T02:47:48.560Z,879.6
2023-04-01T02:49:32.207Z,878.4
2023-04-01T02:51:15.784Z,879.3
2023-04-01T02:52:59.665Z,882.3
2023-04-01T02:54:43.191Z,883.3
2023-04-01T02:56:27.086Z,887.8
2023-04-01T02:58:10.596Z,889.7
2023-04-01T02:59:54.504Z,892.2
2023-04-01T03:01:38.001Z,891.9
2023-04-01T03:03:21.811Z,894.4
2023-04-01T03:05:05.575Z,894.7
2023-04-01T03:06:49.305Z,891.5
2023-04-01T03:08:32.968Z,891.6
2023-04-01T03:10:16.669Z,896.5
2023-04-01T03:13:44.116Z,893
2023-04-01T03:15:27.623Z,896.4
2023-04-01T03:17:11.442Z,896.8
2023-04-01T03:18:55.085Z,896.1
2023-04-01T03:20:38.884Z,894.9
2023-04-01T03:22:22.599Z,896.4
2023-04-01T03:24:06.142Z,898.8
2023-04-01T03:25:49.837Z,902.6
2023-04-01T03:27:33.632Z,901.5
2023-04-01T03:29:17.367Z,900.5
2023-04-01T03:31:01.148Z,902.1
2023-04-01T03:32:44.833Z,904.2
2023-04-01T03:34:28.356Z,907.3
2023-04-01T03:36:12.198Z,905.7
2023-04-01T03:37:55.814Z,906.6
2023-04-01T03:39:39.456Z,907.9
2023-04-01T03:41:23.326Z,908.7
2023-04-01T03:43:06.995Z,909.5
2023-04-01T03:44:50.744Z,907
2023-04-01T03:46:34.367Z,907.7
2023-04-01T03:48:18.289Z,906.6
2023-04-01T03:50:01.817Z,909.9
2023-04-01T03:51:45.588Z,909.7
2023-04-01T03:53:29.270Z,911.1
2023-04-01T03:55:12.768Z,910.6
2023-04-01T03:56:56.609Z,912.3
2023-04-01T03:58:40.339Z,911.9
2023-04-01T04:00:24.063Z,913.9
2023-04-01T04:02:07.588Z,909.5
2023-04-01T04:03:51.410Z,908.4
2023-04-01T04:05:34.996Z,910.1
2023-04-01T04:07:18.908Z,910.1
2023-04-01T04:09:02.618Z,911.1
2023-04-01T04:10:46.316Z,912
2023-04-01T04:12:29.931Z,913.5
2023-04-01T04:14:13.668Z,919.8
2023-04-01T04:15:57.286Z,922
2023-04-01T04:17:40.987Z,922.5
2023-04-01T04:19:24.632Z,925.4
2023-04-01T04:21:08.468Z,920.9
2023-04-01T04:22:52.168Z,918.7
2023-04-01T04:24:35.877Z,921.5
2023-04-01T04:26:19.571Z,923.5
2023-04-01T04:28:03.202Z,922.5
2023-04-01T04:29:46.837Z,924.4
2023-04-01T04:31:30.626Z,924.3
2023-04-01T04:33:14.279Z,924
2023-04-01T04:34:58.046Z,928.2
2023-04-01T04:36:41.818Z,929.3
2023-04-01T04:38:25.435Z,926.9
2023-04-01T04:40:09.059Z,922.9
2023-04-01T04:41:52.816Z,922.7
2023-04-01T04:43:36.581Z,923.5
2023-04-01T04:45:20.170Z,928.5
2023-04-01T04:47:03.901Z,929.7
2023-04-01T04:48:47.692Z,937
2023-04-01T04:50:31.424Z,945.3
2023-04-01T04:52:14.983Z,942.5
2023-04-01T04:53:58.677Z,938.7
2023-04-01T04:55:42.458Z,937.1
2023-04-01T04:57:26.246Z,936
2023-04-01T04:59:09.786Z,936
2023-04-01T05:00:53.649Z,938
2023-04-01T05:02:37.207Z,938
2023-04-01T05:04:20.954Z,936.4
2023-04-01T05:06:04.612Z,938
2023-04-01T05:09:32.083Z,940
2023-04-01T05:11:15.717Z,940.8
2023-04-01T05:12:59.445Z,943.4
2023-04-01T05:14:43.298Z,943.1
2023-04-01T05:16:26.971Z,940.9
2023-04-01T05:18:10.519Z,940.3
2023-04-01T05:19:54.438Z,940.6
2023-04-01T05:21:38.173Z,938.2
2023-04-01T05:23:21.624Z,937.8
2023-04-01T05:25:05.330Z,936.7
2023-04-01T05:26:49.155Z,934.6
2023-04-01T05:28:32.775Z,938.2
2023-04-01T05:30:16.434Z,950.5
2023-04-01T05:32:00.227Z,1112.3
2023-04-01T05:33:43.925Z,1231.4
2023-04-01T05:35:27.693Z,1164.6
2023-04-01T05:37:11.343Z,1051.9
2023-04-01T05:38:55.110Z,1049.7
2023-04-01T05:40:38.816Z,1045.1
2023-04-01T05:42:22.397Z,1050.3
2023-04-01T05:44:06.147Z,1059.3
2023-04-01T05:45:49.772Z,1099.9
2023-04-01T05:47:33.469Z,1144.7
2023-04-01T05:49:17.233Z,1136.7
2023-04-01T05:51:00.948Z,1137.1
2023-04-01T05:52:44.612Z,1140.2
2023-04-01T05:54:28.342Z,1144.6
2023-04-01T05:56:12.003Z,1145.2
2023-04-01T05:57:55.763Z,1146.6
2023-04-01T05:59:39.444Z,1146
2023-04-01T06:01:23.203Z,1144.4
2023-04-01T06:03:06.945Z,1149.7
2023-04-01T06:04:50.626Z,1155.6
2023-04-01T06:06:34.200Z,1167.2
2023-04-01T06:08:17.893Z,1172.4
2023-04-01T06:10:01.665Z,1173.1
2023-04-01T06:11:45.425Z,1178.7
2023-04-01T06:13:29.023Z,1181.5
2023-04-01T06:15:12.720Z,1180.4
2023-04-01T06:16:56.419Z,1179.3
2023-04-01T06:18:40.203Z,1179.5
2023-04-01T06:20:23.822Z,1179.5
2023-04-01T06:22:07.615Z,1183.3
2023-04-01T06:23:51.319Z,1184.8
2023-04-01T06:25:34.975Z,1168.9
2023-04-01T06:27:18.648Z,1159.2
2023-04-01T06:29:02.329Z,1159.3
2023-04-01T06:30:46.149Z,1159.4
2023-04-01T06:32:29.899Z,1157
2023-04-01T06:34:13.639Z,1153.3
2023-04-01T06:35:57.281Z,1147.8
2023-04-01T06:37:41.029Z,1147.3
2023-04-01T06:39:24.551Z,1149.6
2023-04-01T06:41:08.404Z,1149.4
2023-04-01T06:42:52.126Z,1147.6
2023-04-01T06:44:35.803Z,1145.5
2023-04-01T06:46:19.578Z,1143.6
2023-04-01T06:48:03.304Z,1143.5
2023-04-01T06:49:46.937Z,1137.5
2023-04-01T06:51:30.482Z,1153.2
2023-04-01T06:53:14.174Z,1150.3
2023-04-01T06:54:58.032Z,1135.7
2023-04-01T06:56:41.800Z,1134.5
2023-04-01T06:58:25.361Z,1128.7
2023-04-01T07:00:09.173Z,1122.8
2023-04-01T07:01:52.867Z,1118.8
2023-04-01T07:03:36.536Z,1111.1
2023-04-01T07:05:20.091Z,1108
2023-04-01T07:07:03.964Z,1100.9
2023-04-01T07:08:47.656Z,1098.5
2023-04-01T07:10:31.350Z,1094.1
2023-04-01T07:12:15.055Z,1090.8
2023-04-01T07:13:58.813Z,1081.6
2023-04-01T07:15:42.303Z,1077.2
2023-04-01T07:17:26.153Z,1059.7
2023-04-01T07:19:09.861Z,1059.6
2023-04-01T07:20:53.556Z,1053.6
2023-04-01T07:22:37.322Z,1045.7
2023-04-01T07:24:20.967Z,1036.1
2023-04-01T07:26:04.666Z,1036.9
2023-04-01T07:27:48.380Z,1038.9
2023-04-01T07:29:32.119Z,1038.6
2023-04-01T07:31:15.782Z,1030
2023-04-01T07:32:59.329Z,1025.5
2023-04-01T07:34:43.164Z,1023.9
2023-04-01T07:36:26.870Z,1025.2
2023-04-01T07:38:10.519Z,1010.8
2023-04-01T07:39:54.282Z,1002.6
2023-04-01T07:41:37.993Z,1001.9
2023-04-01T07:43:21.737Z,1004.7
2023-04-01T07:45:05.378Z,1006.1
2023-04-01T07:46:49.001Z,1002.9
2023-04-01T07:48:32.863Z,998.2
2023-04-01T07:50:16.527Z,987.2
2023-04-01T07:52:00.205Z,985.3
2023-04-01T07:53:43.934Z,980
2023-04-01T07:55:27.601Z,981.7
2023-04-01T07:57:11.314Z,978.5
2023-04-01T07:58:55.084Z,976.9
2023-04-01T08:00:38.583Z,980.1
2023-04-01T08:04:06.142Z,988.3
2023-04-01T08:05:49.837Z,990.3
2023-04-01T08:07:33.387Z,989.1
2023-04-01T08:09:17.286Z,990.2
2023-04-01T08:11:00.918Z,989.3
2023-04-01T08:12:44.505Z,990.9
2023-04-01T08:14:28.260Z,985.7
2023-04-01T08:16:12.064Z,982.2
2023-04-01T08:17:55.753Z,977
2023-04-01T08:19:39.464Z,972
2023-04-01T08:21:23.027Z,967.2
2023-04-01T08:23:06.942Z,965.2
2023-04-01T08:24:50.585Z,965.2
2023-04-01T08:26:34.275Z,966.9
2023-04-01T08:28:17.985Z,963.6
2023-04-01T08:30:01.702Z,959.6
2023-04-01T08:31:45.346Z,1086.1
2023-04-01T08:33:29.107Z,1380.4
2023-04-01T08:35:12.752Z,1408.9
2023-04-01T08:36:56.536Z,1340
2023-04-01T08:38:40.195Z,1266.9
2023-04-01T08:40:23.858Z,1248.7
2023-04-01T08:42:07.591Z,1224.2
2023-04-01T08:43:51.205Z,1181.5
2023-04-01T08:45:35.001Z,1174.2
2023-04-01T08:47:18.654Z,1161.4
2023-04-01T08:49:02.503Z,1139.5
2023-04-01T08:50:46.122Z,1129.7
2023-04-01T08:52:29.755Z,1122.3
2023-04-01T08:54:13.455Z,1119
2023-04-01T08:55:57.055Z,1119.8
2023-04-01T08:57:40.808Z,1123.4
2023-04-01T08:59:24.702Z,1135.4
2023-04-01T09:01:08.371Z,1142.1
2023-04-01T09:02:51.859Z,1139.3
2023-04-01T09:04:35.765Z,1133.6
2023-04-01T09:06:19.377Z,1131.4
2023-04-01T09:08:03.160Z,1132
2023-04-01T09:09:46.786Z,1133.8
2023-04-01T09:13:14.243Z,1136.5
2023-04-01T09:14:57.791Z,1140.5
2023-04-01T09:16:41.671Z,1140.3
2023-04-01T09:18:25.274Z,1139.6
2023-04-01T09:20:09.042Z,1137.8
2023-04-01T09:21:52.600Z,1135.1
2023-04-01T09:23:36.467Z,1131.2
2023-04-01T09:25:20.141Z,1126.3
2023-04-01T09:27:03.822Z,1118
2023-04-01T09:28:47.534Z,1113.9
2023-04-01T09:30:31.249Z,1112.8
2023-04-01T09:32:14.879Z,1110.5
2023-04-01T09:33:58.573Z,1106.3
2023-04-01T09:35:42.348Z,1103.5
2023-04-01T09:37:26.066Z,1099.2
2023-04-01T09:39:09.802Z,1095
2023-04-01T09:40:53.341Z,1088.7
2023-04-01T09:42:37.193Z,1086.8
2023-04-01T09:44:20.932Z,1083.4
2023-04-01T09:46:04.440Z,1079
2023-04-01T09:47:48.327Z,1076.3
2023-04-01T09:49:32.058Z,1077
2023-04-01T09:51:15.700Z,1079.9
2023-04-01T09:52:59.353Z,1071.3
2023-04-01T09:54:43.090Z,1064.4
2023-04-01T09:56:26.734Z,1064.3
2023-04-01T09:58:10.535Z,1062.7
2023-04-01T09:59:54.195Z,1062
2023-04-01T10:01:37.941Z,1060
2023-04-01T10:03:21.709Z,1058.1
2023-04-01T10:05:05.242Z,1056
2023-04-01T10:06:49.041Z,1053.1
2023-04-01T10:08:32.737Z,1051.2
2023-04-01T10:10:16.268Z,1041.1
2023-04-01T10:12:00.163Z,1034.8
2023-04-01T10:13:43.674Z,1038
2023-04-01T10:15:27.480Z,1034.4
2023-04-01T10:17:11.255Z,1030.6
2023-04-01T10:18:54.972Z,1030
2023-04-01T10:20:38.490Z,1024.4
2023-04-01T10:22:22.345Z,1014.6
2023-04-01T10:24:06.061Z,727.8
2023-04-01T10:25:49.758Z,635
2023-04-01T10:27:33.467Z,676.1
2023-04-01T10:29:17.174Z,808.9
2023-04-01T10:31:00.768Z,896.9
2023-04-01T10:32:44.596Z,885.9
2023-04-01T10:34:28.270Z,873.4
2023-04-01T10:36:11.811Z,868.4
2023-04-01T10:37:55.641Z,861.3
2023-04-01T10:39:39.393Z,846.9
2023-04-01T10:41:23.124Z,840.5
2023-04-01T10:44:50.317Z,832.7
2023-04-01T10:46:34.208Z,830
2023-04-01T10:48:17.890Z,828.4
2023-04-01T10:50:01.512Z,824.7
2023-04-01T10:51:45.260Z,826.5
2023-04-01T10:53:28.879Z,824.2
2023-04-01T10:55:12.692Z,827
2023-04-01T10:56:56.420Z,829.2
2023-04-01T10:58:40.107Z,827.7
2023-04-01T11:00:23.821Z,822.3
2023-04-01T11:02:07.433Z,819.4
2023-04-01T11:03:51.071Z,818.6
2023-04-01T11:05:34.884Z,819.9
2023-04-01T11:07:18.535Z,818.5
2023-04-01T11:09:02.354Z,817
2023-04-01T11:10:46.040Z,818.8
2023-04-01T11:12:29.618Z,817.9
2023-04-01T11:14:13.417Z,813
2023-04-01T11:15:57.016Z,813.2
2023-04-01T11:17:40.838Z,808.6
2023-04-01T11:19:24.368Z,804.2
2023-04-01T11:21:08.068Z,804
2023-04-01T11:22:51.772Z,807.2
2023-04-01T11:24:35.490Z,805.1
2023-04-01T11:26:19.204Z,806.8
2023-04-01T11:28:02.989Z,811.1
2023-04-01T11:29:46.585Z,811.8
2023-04-01T11:31:30.286Z,810.6
2023-04-01T11:33:13.990Z,806.3
2023-04-01T11:34:57.836Z,807.2
2023-04-01T11:36:41.388Z,807.3
2023-04-01T11:38:25.098Z,803
2023-04-01T11:40:08.798Z,802.5
2023-04-01T11:41:52.649Z,802.5
2023-04-01T11:43:36.199Z,802.1
2023-04-01T11:45:19.916Z,801
2023-04-01T11:47:03.618Z,800.9
2023-04-01T11:48:47.342Z,796.1
2023-04-01T11:52:14.758Z,783
2023-04-01T11:53:58.428Z,781.6
2023-04-01T11:55:42.125Z,780.5
2023-04-01T11:57:25.827Z,777
2023-04-01T11:59:09.543Z,734.5
2023-04-01T12:00:53.236Z,685.9
2023-04-01T12:02:36.931Z,677
2023-04-01T12:04:20.634Z,658.9
2023-04-01T12:06:04.370Z,637.1
2023-04-01T12:07:48.049Z,628.9
2023-04-01T12:09:31.747Z,616.6
2023-04-01T12:11:15.453Z,578.9
2023-04-01T12:12:59.181Z,581.1
2023-04-01T12:14:42.857Z,576.6
2023-04-01T12:16:26.561Z,574.9
2023-04-01T12:19:53.955Z,566.7
2023-04-01T12:21:37.670Z,571.8
2023-04-01T12:23:21.383Z,611.2
2023-04-01T12:25:05.091Z,535.7
2023-04-01T12:26:48.796Z,530.5
2023-04-01T12:28:32.475Z,528.8
2023-04-01T12:30:16.182Z,531.4
2023-04-01T12:31:59.889Z,533.2
2023-04-01T12:33:43.599Z,531.2
2023-04-01T12:35:27.393Z,529.2
2023-04-01T12:37:11.015Z,523.2
2023-04-01T12:38:54.692Z,511.5
2023-04-01T12:40:38.532Z,490.4
2023-04-01T12:42:22.105Z,477.7
2023-04-01T12:44:05.824Z,472.6
2023-04-01T12:45:49.509Z,465.8
2023-04-01T12:47:33.211Z,466.2
2023-04-01T12:49:16.949Z,467.1
2023-04-01T12:51:00.618Z,455.2
2023-04-01T12:52:44.319Z,448.5
2023-04-01T12:54:28.023Z,446.7
2023-04-01T12:56:11.736Z,450.2
2023-04-01T12:57:55.436Z,476.9
2023-04-01T12:59:39.133Z,503.3
2023-04-01T13:01:22.838Z,504.4
2023-04-01T13:03:06.540Z,502.6
2023-04-01T13:04:50.244Z,478
2023-04-01T13:06:34.065Z,464.3
2023-04-01T13:08:17.629Z,478.5
2023-04-01T13:10:01.362Z,483
2023-04-01T13:11:45.048Z,484.5
2023-04-01T13:13:28.813Z,484.8
2023-04-01T13:15:12.455Z,486.1
2023-04-01T13:16:56.171Z,491.8
2023-04-01T13:18:39.859Z,494.8
2023-04-01T13:20:23.561Z,497.6
2023-04-01T13:22:07.266Z,500.6
2023-04-01T13:23:50.972Z,498.9
2023-04-01T13:25:34.665Z,497.8
2023-04-01T13:27:18.416Z,499
2023-04-01T13:30:45.783Z,501.3
2023-04-01T13:32:29.492Z,503.8
2023-04-01T13:34:13.174Z,509.4
2023-04-01T13:35:56.902Z,512.4
2023-04-01T13:37:40.646Z,512.5
2023-04-01T13:39:24.300Z,516.2
2023-04-01T13:41:08.004Z,519.6
2023-04-01T13:42:51.713Z,518.5
2023-04-01T13:44:35.396Z,517.7
2023-04-01T13:46:19.145Z,522.9
2023-04-01T13:48:02.817Z,528.7
2023-04-01T13:49:46.509Z,531.5
2023-04-01T13:51:30.208Z,530.3
2023-04-01T13:53:13.939Z,531
2023-04-01T13:54:57.610Z,529.6
2023-04-01T13:56:41.312Z,531
2023-04-01T13:58:25.020Z,528.9
2023-04-01T14:00:08.718Z,526.8
2023-04-01T14:01:52.426Z,526.8
2023-04-01T14:03:36.116Z,533.2
2023-04-01T14:05:19.820Z,536.1
2023-04-01T14:07:03.526Z,538.7
2023-04-01T14:08:47.238Z,539.7
2023-04-01T14:10:30.961Z,536.9
2023-04-01T14:12:14.654Z,538.4
2023-04-01T14:13:58.361Z,539.9
2023-04-01T14:15:42.064Z,545.2
2023-04-01T14:17:25.754Z,547
2023-04-01T14:19:09.450Z,547.3
2023-04-01T14:20:53.154Z,547.1
2023-04-01T14:22:36.954Z,552.6
2023-04-01T14:24:20.566Z,552.6
2023-04-01T14:26:04.333Z,554.2
2023-04-01T14:27:47.960Z,555.1
2023-04-01T14:29:31.679Z,555.8
2023-04-01T14:31:15.367Z,554.1
2023-04-01T14:32:59.092Z,553.5
2023-04-01T14:34:42.772Z,558
2023-04-01T14:36:26.469Z,559.1
2023-04-01T14:38:10.226Z,561.9
2023-04-01T14:39:53.942Z,559.9
2023-04-01T14:41:37.582Z,560.6
2023-04-01T14:43:21.280Z,559.8
2023-04-01T14:45:04.975Z,559.5
2023-04-01T14:46:48.685Z,558.9
2023-04-01T14:48:32.466Z,557.5
2023-04-01T14:50:16.114Z,560.1
2023-04-01T14:51:59.799Z,558.1
2023-04-01T14:53:43.500Z,559.4
2023-04-01T14:55:27.285Z,556.9
2023-04-01T14:57:10.904Z,557
2023-04-01T14:58:54.626Z,559
2023-04-01T15:00:38.305Z,557.6
2023-04-01T15:02:22.016Z,556.8
2023-04-01T15:04:05.711Z,556.1
2023-04-01T15:05:49.424Z,560.3
2023-04-01T15:07:33.124Z,558.5
2023-04-01T15:09:16.858Z,557.4
2023-04-01T15:11:00.526Z,554.8
2023-04-01T15:12:44.228Z,555.5
2023-04-01T15:14:27.924Z,559
2023-04-01T15:16:11.636Z,560.3
2023-04-01T15:17:55.330Z,560.9
2023-04-01T15:19:39.053Z,559.1
2023-04-01T15:21:22.840Z,557
2023-04-01T15:23:06.510Z,559
2023-04-01T15:24:50.155Z,561.7
2023-04-01T15:26:33.897Z,559.4
2023-04-01T15:28:17.537Z,556.2
2023-04-01T15:30:01.255Z,555.6
2023-04-01T15:31:44.971Z,555.4
2023-04-01T15:33:28.667Z,556
2023-04-01T15:35:12.367Z,555.4
2023-04-01T15:36:56.128Z,553
2023-04-01T15:40:23.475Z,556.2
2023-04-01T15:43:51.018Z,563.8
2023-04-01T15:45:34.718Z,562.5
2023-04-01T15:47:18.451Z,559
2023-04-01T15:49:02.119Z,559.2
2023-04-01T15:50:45.858Z,559.9
2023-04-01T15:52:29.503Z,559.6
2023-04-01T15:54:13.357Z,564
2023-04-01T15:55:56.783Z,569
2023-04-01T15:57:40.622Z,571
2023-04-01T15:59:24.372Z,570.8
2023-04-01T16:01:08.114Z,570.5
2023-04-01T16:02:51.764Z,569
2023-04-01T16:04:35.318Z,571.2
2023-04-01T16:06:18.994Z,567.6
2023-04-01T16:08:02.877Z,562.5
2023-04-01T16:09:46.580Z,565
2023-04-01T16:11:30.317Z,566.2
2023-04-01T16:13:13.997Z,568.1
2023-04-01T16:14:57.706Z,571.8
2023-04-01T16:16:41.217Z,573.2
2023-04-01T16:18:25.076Z,573.3
2023-04-01T16:20:08.656Z,573.5
2023-04-01T16:21:52.525Z,573.7
2023-04-01T16:23:36.183Z,574.1
2023-04-01T16:25:19.789Z,580.1
2023-04-01T16:27:03.576Z,582
2023-04-01T16:28:47.303Z,579.8
2023-04-01T16:30:30.880Z,575.5
2023-04-01T16:32:14.650Z,574.3
2023-04-01T16:33:58.425Z,575.1
2023-04-01T16:35:42.150Z,577.8
2023-04-01T16:37:25.891Z,578.5
2023-04-01T16:39:09.507Z,580
2023-04-01T16:40:53.141Z,581.1
2023-04-01T16:42:36.772Z,581.7
2023-04-01T16:44:20.632Z,578.4
2023-04-01T16:46:04.319Z,582.1
2023-04-01T16:47:48.010Z,586.9
2023-04-01T16:49:31.726Z,587.4
2023-04-01T16:51:15.437Z,584.4
2023-04-01T16:52:59.079Z,611.8
2023-04-01T16:54:42.847Z,625
2023-04-01T16:56:26.580Z,627.9
2023-04-01T16:58:10.213Z,629.2
2023-04-01T16:59:53.882Z,634.4
2023-04-01T17:01:37.477Z,634.6
2023-04-01T17:03:21.373Z,637.5
2023-04-01T17:05:04.889Z,638.2
2023-04-01T17:06:48.796Z,638.1
2023-04-01T17:08:32.489Z,642.7
2023-04-01T17:10:16.008Z,645
2023-04-01T17:11:59.894Z,645.1
2023-04-01T17:13:43.547Z,643
2023-04-01T17:15:27.179Z,641
2023-04-01T17:17:11.014Z,642.4
2023-04-01T17:18:54.683Z,642.9
2023-04-01T17:20:38.227Z,645.4
2023-04-01T17:22:22.012Z,644.2
2023-04-01T17:24:05.797Z,644.8
2023-04-01T17:25:49.509Z,643.9
2023-04-01T17:27:33.172Z,642.7
2023-04-01T17:29:16.769Z,644.2
2023-04-01T17:31:00.573Z,642.2
2023-04-01T17:32:44.307Z,644.3
2023-04-01T17:34:28.016Z,648
2023-04-01T17:36:11.684Z,649.4
2023-04-01T17:37:55.310Z,649.6
2023-04-01T17:39:38.995Z,575.3
2023-04-01T17:41:22.812Z,538.1
2023-04-01T17:43:06.562Z,543.9
2023-04-01T17:44:50.268Z,624
2023-04-01T17:46:33.887Z,634.1
2023-04-01T17:48:17.649Z,643
2023-04-01T17:50:01.350Z,688.2
2023-04-01T17:51:44.986Z,702.9
2023-04-01T17:53:28.786Z,702.1
2023-04-01T17:55:12.490Z,703.8
2023-04-01T17:56:56.253Z,711.2
2023-04-01T17:58:39.762Z,764.4
2023-04-01T18:00:23.466Z,885.6
2023-04-01T18:02:07.263Z,920.4
2023-04-01T18:03:51.018Z,928.2
2023-04-01T18:05:34.735Z,942
2023-04-01T18:07:18.378Z,958.1
2023-04-01T18:09:02.087Z,965.5
2023-04-01T18:10:45.662Z,977
2023-04-01T18:12:29.469Z,1029.9
2023-04-01T18:14:13.168Z,1058.4
2023-04-01T18:15:56.884Z,1057.9
2023-04-01T18:17:40.580Z,1066.8
2023-04-01T18:19:24.256Z,1086
2023-04-01T18:21:08.001Z,1100.5
2023-04-01T18:22:51.645Z,1104.1
2023-04-01T18:24:35.328Z,1107.8
2023-04-01T18:26:19.001Z,1114.3
2023-04-01T18:28:02.951Z,1117.3
2023-04-01T18:29:46.512Z,1121.7
2023-04-01T18:31:30.182Z,1145.7
2023-04-01T18:33:13.877Z,1159.2
2023-04-01T18:34:57.604Z,1168.4
2023-04-01T18:36:41.199Z,1177.6
2023-04-01T18:40:08.591Z,1195.2
2023-04-01T18:41:52.386Z,1202.7
2023-04-01T18:43:36.102Z,1216.7
2023-04-01T18:45:19.789Z,1227.3
2023-04-01T18:47:03.541Z,1242.4
2023-04-01T18:48:47.145Z,1277.1
2023-04-01T18:50:30.738Z,1269.6
2023-04-01T18:52:14.447Z,1277.9
2023-04-01T18:53:58.353Z,1285.6
2023-04-01T18:55:42.048Z,1291.9
2023-04-01T18:59:09.412Z,1295.7
2023-04-01T19:00:53.058Z,1301.2
2023-04-01T19:02:36.696Z,1310.2
2023-04-01T19:04:20.546Z,1323.9
2023-04-01T19:06:04.151Z,1335.3
2023-04-01T19:07:47.963Z,1347.2
2023-04-01T19:09:31.680Z,1354.3
2023-04-01T19:11:15.289Z,1359.6
2023-04-01T19:12:59.077Z,1365.6
2023-04-01T19:14:42.809Z,1382.1
2023-04-01T19:16:26.559Z,1391.8
2023-04-01T19:18:10.152Z,1395
2023-04-01T19:19:53.692Z,1424.5
2023-04-01T19:21:37.558Z,1422.8
2023-04-01T19:23:21.291Z,1423.6
2023-04-01T19:26:48.661Z,1438.7
2023-04-01T19:28:32.240Z,1458.5
2023-04-01T19:30:16.074Z,1472.2
2023-04-01T19:31:59.730Z,1478.6
2023-04-01T19:35:27.178Z,1475.3
2023-04-01T19:37:10.896Z,1474.6
2023-04-01T19:38:54.629Z,1477
2023-04-01T19:40:38.173Z,1478.4
2023-04-01T19:42:21.985Z,1480.1
2023-04-01T19:44:05.713Z,1490.1
2023-04-01T19:45:49.464Z,1489.7
2023-04-01T19:47:33.109Z,1499
2023-04-01T19:49:16.668Z,1508.9
2023-04-01T19:51:00.563Z,1514.1
2023-04-01T19:52:44.271Z,1521.8
2023-04-01T19:54:27.903Z,1531.1
2023-04-01T19:56:11.487Z,1539.2
2023-04-01T19:57:55.341Z,1543.5
2023-04-01T19:59:39.053Z,1546.8
2023-04-01T20:01:22.572Z,1550.7
2023-04-01T20:03:06.399Z,1553.8
2023-04-01T20:04:50.170Z,1560.8
2023-04-01T20:06:33.840Z,1564.8
2023-04-01T20:08:17.524Z,1574.5
2023-04-01T20:10:01.241Z,1577.3
2023-04-01T20:11:44.763Z,1602.7
2023-04-01T20:13:28.671Z,1622.9
2023-04-01T20:15:12.221Z,1624
2023-04-01T20:16:56.054Z,1634.6
2023-04-01T20:20:23.294Z,1649.8
2023-04-01T20:22:06.989Z,1657
2023-04-01T20:23:50.832Z,1661.6
2023-04-01T20:25:34.549Z,1662.8
2023-04-01T20:27:18.219Z,1662.8
2023-04-01T20:29:01.790Z,1666.2
2023-04-01T20:30:45.698Z,1671.6
2023-04-01T20:32:29.200Z,1669.7
2023-04-01T20:34:12.962Z,1670.4
2023-04-01T20:35:56.763Z,1678.2
2023-04-01T20:37:40.508Z,1680.7
2023-04-01T20:39:24.197Z,1680.6
2023-04-01T20:41:07.776Z,1676.6
2023-04-01T20:42:51.611Z,1676.3
2023-04-01T20:44:35.279Z,1700
2023-04-01T20:46:18.947Z,1700.8
2023-04-01T20:48:02.714Z,1701.3
2023-04-01T20:49:46.341Z,1705.5
2023-04-01T20:51:30.150Z,1710.8
2023-04-01T20:53:13.721Z,1718.3
2023-04-01T20:54:57.471Z,1729
2023-04-01T20:56:41.219Z,1735.9
2023-04-01T20:58:24.942Z,1741.4
2023-04-01T21:00:08.437Z,1744.3
2023-04-01T21:01:52.320Z,1745.8
2023-04-01T21:03:36.078Z,1760
2023-04-01T21:05:19.541Z,1759.2
2023-04-01T21:07:03.404Z,1760.4
2023-04-01T21:08:47.131Z,1765.2
2023-04-01T21:10:30.867Z,1776.4
2023-04-01T21:12:14.366Z,1781.2
2023-04-01T21:13:58.157Z,1786.4
2023-04-01T21:15:41.930Z,1794.9
2023-04-01T21:17:25.616Z,1798.2
2023-04-01T21:19:09.336Z,1800
2023-04-01T21:20:52.884Z,1800.4
2023-04-01T21:22:36.774Z,1801.5
2023-04-01T21:24:20.316Z,1801.9
2023-04-01T21:26:03.997Z,1805.2
2023-04-01T21:27:47.856Z,1804.7
2023-04-01T21:29:31.389Z,1810.4
2023-04-01T21:31:15.091Z,1821.1
2023-04-01T21:32:58.918Z,1830.8
2023-04-01T21:34:42.694Z,1841.9
2023-04-01T21:36:26.357Z,1844.1
2023-04-01T21:38:10.019Z,1846.4
2023-04-01T21:39:53.618Z,1841.9
2023-04-01T21:41:37.445Z,1837.2
2023-04-01T21:43:21.012Z,1835.8
2023-04-01T21:46:48.522Z,1833.1
2023-04-01T21:48:32.172Z,1837.2
2023-04-01T21:50:15.962Z,1837.5
2023-04-01T21:51:59.648Z,1839.1
2023-04-01T21:53:43.360Z,1838.4
2023-04-01T21:55:27.072Z,1835
2023-04-01T21:57:10.798Z,1834.7
2023-04-01T21:58:54.320Z,1834.6
2023-04-01T22:00:38.029Z,1838.1
2023-04-01T22:02:21.727Z,1845.8
2023-04-01T22:04:05.462Z,1852.4
2023-04-01T22:05:49.269Z,1849.1
2023-04-01T22:07:32.997Z,1854.3
2023-04-01T22:09:16.723Z,1862.8
2023-04-01T22:11:00.319Z,1883.5
2023-04-01T22:12:43.992Z,1891
2023-04-01T22:14:27.760Z,1889.5
2023-04-01T22:16:11.521Z,1892.9
2023-04-01T22:17:55.186Z,1897.3
2023-04-01T22:19:38.879Z,1893.8
2023-04-01T22:21:22.571Z,1891.4
2023-04-01T22:23:06.290Z,1895.8
2023-04-01T22:24:49.852Z,1902.5
2023-04-01T22:26:33.708Z,1908
2023-04-01T22:28:17.256Z,1913.9
2023-04-01T22:30:01.019Z,1926.5
2023-04-01T22:31:44.692Z,1941.8
2023-04-01T22:33:28.370Z,1945.8
2023-04-01T22:35:12.208Z,1968.7
2023-04-01T22:36:55.932Z,1983.6
2023-04-01T22:38:39.678Z,1980
2023-04-01T22:40:23.296Z,1983.7
2023-04-01T22:42:06.879Z,1982.4